Time;durP1;ratioP1;P1;durP2;ratioP2;P2;SDS_P1;SDS_P2;PMS_P1;PMS_P2;Temp;Humidity;BMP_temperature;BMP_pressure;BME280_temperature;BME280_humidity;BME280_pressure;Samples;Min_cycle;Max_cycle;Signal;HPM_P1;HPM_P2
2022/04/03 00:01:41;;;;;;;7.97;5.10;;;1.80;99.90;;;;;;5043533;28;20905;-63
2022/04/03 00:04:09;;;;;;;6.13;4.70;;;1.80;99.90;;;;;;5050264;28;20488;-63
2022/04/03 00:06:38;;;;;;;7.80;5.20;;;1.80;99.90;;;;;;5042914;28;20479;-63
2022/04/03 00:09:06;;;;;;;7.43;4.83;;;1.80;99.90;;;;;;5051327;28;20467;-62
2022/04/03 00:11:34;;;;;;;7.73;4.63;;;1.80;99.90;;;;;;5050894;28;20547;-63
2022/04/03 00:14:02;;;;;;;7.27;5.23;;;2.10;99.90;;;;;;5051123;28;20480;-63
2022/04/03 00:16:32;;;;;;;6.83;4.70;;;1.90;99.90;;;;;;5050712;28;20478;-63
2022/04/03 00:19:01;;;;;;;5.17;4.53;;;1.80;99.90;;;;;;5050789;28;20489;-63
2022/04/03 00:21:29;;;;;;;4.83;3.53;;;1.80;99.90;;;;;;5050829;28;21017;-63
2022/04/03 00:23:57;;;;;;;6.10;3.60;;;2.10;99.90;;;;;;5050057;28;20543;-63
2022/04/03 00:26:25;;;;;;;6.77;4.17;;;2.20;99.90;;;;;;5049825;28;20475;-63
2022/04/03 00:28:53;;;;;;;6.40;4.30;;;2.10;99.90;;;;;;5050851;28;20878;-63
2022/04/03 00:31:22;;;;;;;6.27;4.73;;;1.90;99.90;;;;;;5048497;28;20835;-63
2022/04/03 00:33:52;;;;;;;6.37;3.63;;;1.90;99.90;;;;;;5050590;28;20532;-62
2022/04/03 00:36:20;;;;;;;5.57;3.93;;;2.00;99.90;;;;;;5050337;28;20483;-63
2022/04/03 00:38:48;;;;;;;5.00;4.10;;;2.20;99.90;;;;;;5050648;28;20888;-63
2022/04/03 00:41:18;;;;;;;5.90;4.37;;;2.50;99.90;;;;;;5050497;28;20482;-63
2022/04/03 00:43:47;;;;;;;6.10;4.47;;;2.40;99.90;;;;;;5049894;28;20473;-63
2022/04/03 00:46:19;;;;;;;3.83;3.33;;;2.30;99.90;;;;;;5050358;28;20474;-63
2022/04/03 00:48:48;;;;;;;5.90;3.87;;;2.60;99.90;;;;;;5050699;28;20476;-63
2022/04/03 00:51:18;;;;;;;4.40;3.73;;;2.50;99.90;;;;;;5050188;28;20468;-63
2022/04/03 00:53:47;;;;;;;5.23;4.23;;;2.60;99.90;;;;;;5050523;28;20518;-63
2022/04/03 00:56:15;;;;;;;5.67;4.17;;;2.50;99.90;;;;;;5050014;28;20468;-63
2022/04/03 00:58:43;;;;;;;5.67;4.43;;;2.40;99.90;;;;;;5050703;28;20542;-63
2022/04/03 01:01:13;;;;;;;5.40;4.23;;;2.30;99.90;;;;;;5048718;28;20498;-63
2022/04/03 01:03:41;;;;;;;5.30;4.33;;;2.40;99.90;;;;;;4995516;28;20581;-63
2022/04/03 01:06:09;;;;;;;5.97;3.73;;;2.20;99.90;;;;;;5051934;28;21023;-63
2022/04/03 01:08:38;;;;;;;4.83;3.87;;;2.40;99.90;;;;;;5031661;28;20473;-63
2022/04/03 01:11:07;;;;;;;6.17;4.17;;;2.30;99.90;;;;;;5051872;28;20465;-63
2022/04/03 01:13:44;;;;;;;7.37;4.30;;;2.10;99.90;;;;;;5034323;28;21059;-63
2022/04/03 01:16:12;;;;;;;6.13;4.17;;;2.00;99.90;;;;;;5052787;28;20964;-63
2022/04/03 01:18:40;;;;;;;6.20;3.97;;;1.80;99.90;;;;;;5044454;28;20445;-63
2022/04/03 01:21:09;;;;;;;6.13;4.23;;;1.70;99.90;;;;;;5051853;28;20453;-63
2022/04/03 01:23:38;;;;;;;4.50;3.90;;;1.70;99.90;;;;;;5028949;28;20651;-63
2022/04/03 01:26:08;;;;;;;4.57;4.00;;;1.60;99.90;;;;;;5048461;28;20477;-63
2022/04/03 01:28:36;;;;;;;5.57;3.60;;;1.60;99.90;;;;;;5050110;28;20485;-63
2022/04/03 01:31:29;;;;;;;3.87;3.33;;;1.50;99.90;;;;;;5049986;28;20467;-63
2022/04/03 01:33:57;;;;;;;5.17;3.87;;;1.50;99.90;;;;;;5030930;28;20475;-63
2022/04/03 01:36:26;;;;;;;5.07;3.87;;;1.60;99.90;;;;;;5050092;28;20867;-63
2022/04/03 01:38:54;;;;;;;8.37;3.80;;;1.60;99.90;;;;;;5052114;28;20466;-63
2022/04/03 01:41:23;;;;;;;4.83;3.83;;;1.70;99.90;;;;;;5051973;28;20983;-63
2022/04/03 01:43:51;;;;;;;5.40;3.57;;;1.80;99.90;;;;;;5053401;28;20549;-63
2022/04/03 01:46:19;;;;;;;5.93;4.20;;;2.00;99.90;;;;;;5053976;28;20498;-63
2022/04/03 01:48:48;;;;;;;5.53;3.63;;;2.00;99.90;;;;;;5053858;28;20536;-63
2022/04/03 01:51:16;;;;;;;7.17;3.90;;;2.00;99.90;;;;;;5053808;28;20498;-63
2022/04/03 01:53:44;;;;;;;5.23;3.73;;;2.10;99.90;;;;;;5053894;28;20467;-63
2022/04/03 01:56:12;;;;;;;4.50;3.47;;;2.00;99.90;;;;;;5053514;28;20510;-63
2022/04/03 01:58:42;;;;;;;4.80;3.47;;;1.90;99.90;;;;;;5033966;28;20488;-63
2022/04/03 02:01:10;;;;;;;5.10;3.90;;;1.90;99.90;;;;;;5053239;28;21045;-63
2022/04/03 02:03:38;;;;;;;6.23;3.87;;;1.70;99.90;;;;;;5044235;28;20463;-63
2022/04/03 02:06:07;;;;;;;4.23;3.60;;;1.60;99.90;;;;;;5053192;28;20457;-63
2022/04/03 02:08:36;;;;;;;4.23;3.13;;;1.60;99.90;;;;;;5053289;28;20482;-63
2022/04/03 02:11:04;;;;;;;6.37;4.40;;;1.80;99.90;;;;;;5053365;28;20476;-63
2022/04/03 02:13:32;;;;;;;5.93;4.63;;;1.90;99.90;;;;;;5053462;28;20547;-63
2022/04/03 02:16:02;;;;;;;4.47;3.87;;;1.70;99.90;;;;;;5053511;28;20476;-63
2022/04/03 02:18:30;;;;;;;5.10;4.10;;;1.70;99.90;;;;;;5053248;28;20474;-63
2022/04/03 02:20:58;;;;;;;6.97;4.70;;;1.80;99.90;;;;;;5053276;28;20966;-63
2022/04/03 02:23:26;;;;;;;8.83;4.40;;;1.90;99.90;;;;;;5052469;28;20841;-62
2022/04/03 02:25:55;;;;;;;5.97;4.70;;;2.00;99.90;;;;;;5052840;28;20468;-64
2022/04/03 02:28:23;;;;;;;6.90;4.63;;;1.80;99.90;;;;;;5053098;28;20470;-63
2022/04/03 02:30:51;;;;;;;6.13;3.93;;;1.90;99.90;;;;;;5052908;28;20477;-63
2022/04/03 02:33:20;;;;;;;5.10;3.80;;;1.90;99.90;;;;;;5053157;28;20482;-63
2022/04/03 02:35:49;;;;;;;6.33;4.40;;;2.00;99.90;;;;;;5052784;28;20471;-63
2022/04/03 02:38:18;;;;;;;4.50;3.70;;;1.90;99.90;;;;;;5053095;28;21060;-63
2022/04/03 02:40:47;;;;;;;5.60;3.93;;;1.90;99.90;;;;;;5052730;28;20475;-63
2022/04/03 02:43:15;;;;;;;6.43;3.80;;;1.70;99.90;;;;;;5052302;28;20464;-62
2022/04/03 02:45:43;;;;;;;5.60;3.97;;;1.60;99.90;;;;;;5052312;28;20474;-63
2022/04/03 02:48:11;;;;;;;6.63;4.40;;;1.70;99.90;;;;;;5052696;28;20478;-63
2022/04/03 02:50:41;;;;;;;6.83;3.73;;;1.80;99.90;;;;;;5051284;28;20482;-63
2022/04/03 02:53:09;;;;;;;4.57;3.53;;;1.90;99.90;;;;;;5052678;28;20554;-63
2022/04/03 02:55:37;;;;;;;5.73;4.20;;;2.10;99.90;;;;;;5052266;28;20557;-63
2022/04/03 02:58:05;;;;;;;4.70;3.77;;;2.10;99.90;;;;;;5052854;28;20471;-61
2022/04/03 03:00:35;;;;;;;5.47;4.27;;;2.20;99.90;;;;;;5052484;28;20474;-63
2022/04/03 03:03:06;;;;;;;5.53;4.07;;;2.10;99.90;;;;;;5052108;28;20474;-63
2022/04/03 03:05:35;;;;;;;5.10;3.40;;;2.20;99.90;;;;;;5052020;28;20521;-63
2022/04/03 03:08:05;;;;;;;5.63;4.00;;;2.10;99.90;;;;;;5052592;28;20472;-63
2022/04/03 03:10:33;;;;;;;5.00;4.17;;;1.80;99.90;;;;;;5052018;28;20554;-63
2022/04/03 03:13:02;;;;;;;4.80;4.10;;;1.60;99.90;;;;;;5052482;28;20477;-63
2022/04/03 03:15:30;;;;;;;5.70;3.90;;;1.50;99.90;;;;;;5052460;28;20476;-63
2022/04/03 03:17:58;;;;;;;7.00;3.90;;;1.40;99.90;;;;;;5052418;28;20477;-63
2022/04/03 03:20:26;;;;;;;4.50;3.60;;;1.30;99.90;;;;;;5051807;28;20518;-63
2022/04/03 03:22:55;;;;;;;4.67;3.70;;;1.20;99.90;;;;;;5051770;28;20466;-63
2022/04/03 03:25:30;;;;;;;4.73;3.47;;;1.30;99.90;;;;;;5051592;28;20471;-62
2022/04/03 03:27:58;;;;;;;4.50;3.93;;;1.20;99.90;;;;;;5052210;28;20563;-63
2022/04/03 03:30:26;;;;;;;3.10;2.70;;;1.20;99.90;;;;;;5051579;28;21001;-62
2022/04/03 03:32:54;;;;;;;6.23;4.20;;;1.50;99.90;;;;;;5052244;28;20468;-63
2022/04/03 03:35:22;;;;;;;6.60;4.37;;;1.60;99.90;;;;;;5051964;28;20483;-63
2022/04/03 03:37:50;;;;;;;4.40;4.00;;;1.40;99.90;;;;;;5051937;28;20475;-63
2022/04/03 03:40:18;;;;;;;3.60;3.17;;;1.50;99.90;;;;;;5051705;28;20509;-63
2022/04/03 03:42:48;;;;;;;6.73;3.53;;;1.70;99.90;;;;;;5051324;28;20520;-63
2022/04/03 03:45:17;;;;;;;6.33;3.80;;;1.60;99.90;;;;;;5048683;28;20516;-63
2022/04/03 03:47:47;;;;;;;4.93;3.53;;;1.40;99.90;;;;;;5051588;28;20934;-63
2022/04/03 03:50:16;;;;;;;6.00;3.57;;;1.20;99.90;;;;;;5051481;28;20544;-63
2022/04/03 03:52:45;;;;;;;4.07;2.63;;;1.10;99.90;;;;;;5051221;28;20476;-63
2022/04/03 03:55:15;;;;;;;7.13;3.77;;;1.40;99.90;;;;;;5050537;28;20851;-63
2022/04/03 03:57:45;;;;;;;5.83;4.33;;;1.40;99.90;;;;;;5051469;28;21044;-63
2022/04/03 04:00:16;;;;;;;5.07;3.40;;;1.40;99.90;;;;;;5051409;28;20479;-63
2022/04/03 04:02:44;;;;;;;4.67;3.40;;;1.40;99.90;;;;;;5050678;28;21026;-62
2022/04/03 04:05:12;;;;;;;4.80;3.33;;;1.40;99.90;;;;;;5050969;28;20475;-63
2022/04/03 04:07:42;;;;;;;3.53;2.97;;;1.40;99.90;;;;;;5043513;28;20475;-63
2022/04/03 04:10:12;;;;;;;5.93;3.30;;;1.60;99.90;;;;;;5051207;28;20499;-63
2022/04/03 04:12:40;;;;;;;6.80;3.87;;;1.70;99.90;;;;;;5043414;28;20470;-63
2022/04/03 04:15:10;;;;;;;4.67;3.30;;;1.70;99.90;;;;;;5051028;28;20469;-63
2022/04/03 04:17:41;;;;;;;4.37;3.43;;;2.00;99.90;;;;;;5042862;28;20495;-63
2022/04/03 04:20:12;;;;;;;4.30;3.20;;;2.00;99.90;;;;;;5045476;28;20516;-63
2022/04/03 04:22:41;;;;;;;5.30;3.23;;;1.90;99.90;;;;;;5042969;28;20474;-63
2022/04/03 04:25:10;;;;;;;6.43;3.60;;;1.90;99.90;;;;;;5050370;28;20473;-63
2022/04/03 04:27:38;;;;;;;6.60;3.77;;;1.80;99.90;;;;;;5042884;28;20467;-63
2022/04/03 04:30:07;;;;;;;9.03;4.00;;;1.80;99.90;;;;;;5044739;28;20840;-63
2022/04/03 04:32:35;;;;;;;4.30;3.10;;;1.60;99.90;;;;;;5047432;28;20468;-63
2022/04/03 04:35:06;;;;;;;4.97;3.47;;;1.40;99.90;;;;;;5050431;28;20476;-63
2022/04/03 04:37:35;;;;;;;4.60;3.30;;;1.20;99.90;;;;;;5046421;28;20477;-63
2022/04/03 04:40:04;;;;;;;4.77;3.23;;;1.20;99.90;;;;;;5047625;28;21068;-63
2022/04/03 04:42:32;;;;;;;3.47;3.10;;;1.30;99.90;;;;;;5049255;28;20579;-63
2022/04/03 04:45:00;;;;;;;6.13;3.63;;;1.40;99.90;;;;;;5049848;28;20530;-63
2022/04/03 04:47:28;;;;;;;5.80;4.13;;;1.60;99.90;;;;;;5050694;28;20468;-63
2022/04/03 04:49:56;;;;;;;4.03;3.33;;;1.70;99.90;;;;;;5050703;28;20576;-63
2022/04/03 04:52:25;;;;;;;4.83;3.03;;;1.70;99.90;;;;;;5050668;28;20459;-63
2022/04/03 04:54:53;;;;;;;5.50;3.27;;;1.90;99.90;;;;;;5050383;28;20566;-63
2022/04/03 04:57:22;;;;;;;4.63;3.53;;;1.90;99.90;;;;;;5050192;28;20559;-63
2022/04/03 04:59:50;;;;;;;4.80;3.37;;;1.80;99.90;;;;;;5050512;28;21007;-63
2022/04/03 05:02:18;;;;;;;5.37;3.37;;;1.90;99.90;;;;;;5050781;28;20485;-63
2022/04/03 05:04:46;;;;;;;6.47;3.53;;;1.90;99.90;;;;;;5049578;28;20474;-63
2022/04/03 05:07:14;;;;;;;4.60;3.20;;;1.80;99.90;;;;;;5050460;28;20869;-63
2022/04/03 05:09:44;;;;;;;6.27;2.90;;;1.90;99.90;;;;;;5055951;28;20468;-63
2022/04/03 05:12:14;;;;;;;5.33;3.30;;;1.90;99.90;;;;;;5049902;28;20505;-63
2022/04/03 05:14:42;;;;;;;4.47;3.27;;;1.90;99.90;;;;;;5051010;28;20510;-63
2022/04/03 05:17:10;;;;;;;6.53;3.60;;;1.80;99.90;;;;;;5054727;28;20567;-63
2022/04/03 05:19:39;;;;;;;4.40;3.00;;;1.70;99.90;;;;;;5052476;28;20500;-63
2022/04/03 05:22:07;;;;;;;4.77;2.80;;;1.60;99.90;;;;;;5052053;28;20495;-62
2022/04/03 05:24:35;;;;;;;3.97;3.37;;;1.60;99.90;;;;;;5053264;28;21007;-63
2022/04/03 05:27:05;;;;;;;5.60;3.77;;;1.80;99.90;;;;;;5054157;28;20618;-62
2022/04/03 05:29:35;;;;;;;4.40;2.90;;;1.70;99.90;;;;;;5054011;28;20466;-63
2022/04/03 05:32:03;;;;;;;3.93;3.00;;;1.70;99.90;;;;;;5054130;28;20513;-62
2022/04/03 05:34:32;;;;;;;4.47;3.10;;;1.60;99.90;;;;;;5053978;28;20467;-62
2022/04/03 05:37:00;;;;;;;8.47;3.10;;;1.60;99.90;;;;;;5054468;28;20475;-63
2022/04/03 05:39:28;;;;;;;5.73;3.57;;;1.70;99.90;;;;;;5050278;28;20470;-63
2022/04/03 05:41:57;;;;;;;4.13;3.00;;;1.70;99.90;;;;;;5052525;28;20475;-63
2022/04/03 05:44:26;;;;;;;4.67;3.00;;;1.70;99.90;;;;;;5053290;28;20455;-63
2022/04/03 05:46:54;;;;;;;6.00;3.43;;;1.70;99.90;;;;;;5053957;28;21021;-63
2022/04/03 05:49:23;;;;;;;5.47;3.00;;;1.70;99.90;;;;;;5053748;28;20466;-63
2022/04/03 05:51:51;;;;;;;6.07;3.30;;;1.80;99.90;;;;;;5053894;28;20804;-62
2022/04/03 05:54:19;;;;;;;6.10;3.33;;;1.80;99.90;;;;;;5053432;28;20990;-63
2022/04/03 05:56:48;;;;;;;5.37;3.60;;;1.90;99.90;;;;;;5053715;28;20474;-63
2022/04/03 05:59:18;;;;;;;4.70;3.30;;;1.90;99.90;;;;;;5053512;28;20482;-63
2022/04/03 06:01:48;;;;;;;5.20;3.43;;;1.90;99.90;;;;;;5053415;28;20478;-63
2022/04/03 06:04:16;;;;;;;3.90;3.07;;;1.80;99.90;;;;;;5050141;28;20553;-63
2022/04/03 06:06:44;;;;;;;4.10;2.80;;;1.80;99.90;;;;;;5052044;28;22121;-63
2022/04/03 06:09:13;;;;;;;3.30;3.00;;;1.90;99.90;;;;;;5049229;28;20496;-63
2022/04/03 06:11:41;;;;;;;3.87;3.23;;;2.00;99.90;;;;;;5052907;28;20470;-63
2022/04/03 06:14:10;;;;;;;3.47;2.80;;;1.90;99.90;;;;;;5053362;28;20551;-63
2022/04/03 06:16:38;;;;;;;4.70;2.97;;;1.90;99.90;;;;;;5045108;28;20523;-63
2022/04/03 06:19:08;;;;;;;3.37;2.93;;;2.00;99.90;;;;;;5053352;28;20471;-63
2022/04/03 06:21:36;;;;;;;6.20;3.30;;;1.90;99.90;;;;;;5053004;28;20477;-63
2022/04/03 06:24:05;;;;;;;4.50;2.83;;;1.90;99.90;;;;;;5052273;28;20527;-63
2022/04/03 06:26:33;;;;;;;3.90;2.73;;;2.10;99.90;;;;;;5053047;28;20481;-63
2022/04/03 06:29:01;;;;;;;3.77;3.03;;;2.00;99.90;;;;;;5053416;28;20962;-63
2022/04/03 06:31:30;;;;;;;4.23;2.83;;;2.00;99.90;;;;;;5052838;28;20474;-63
2022/04/03 06:33:58;;;;;;;5.07;2.70;;;1.90;99.90;;;;;;5053130;28;20467;-64
2022/04/03 06:36:28;;;;;;;4.53;2.97;;;1.90;99.90;;;;;;5052713;28;20969;-61
2022/04/03 06:38:56;;;;;;;4.70;2.90;;;2.10;99.90;;;;;;5053280;28;20980;-63
2022/04/03 06:41:24;;;;;;;5.50;3.33;;;2.00;99.90;;;;;;5052706;28;20468;-63
2022/04/03 06:43:52;;;;;;;3.47;2.67;;;2.00;99.90;;;;;;5052132;28;20474;-62
2022/04/03 06:46:20;;;;;;;5.87;3.40;;;2.00;99.90;;;;;;5052460;28;20874;-63
2022/04/03 06:48:48;;;;;;;7.50;3.47;;;1.90;99.90;;;;;;5052674;28;20472;-63
2022/04/03 06:51:16;;;;;;;5.07;2.93;;;1.90;99.90;;;;;;5052544;28;20478;-63
2022/04/03 06:53:46;;;;;;;3.57;2.63;;;2.00;99.90;;;;;;5052625;28;20464;-63
2022/04/03 06:56:14;;;;;;;3.50;2.43;;;2.00;99.90;;;;;;5052367;28;20531;-63
2022/04/03 06:58:42;;;;;;;4.43;2.67;;;2.00;99.90;;;;;;5052708;28;20510;-63
2022/04/03 07:01:10;;;;;;;3.77;2.83;;;1.90;99.90;;;;;;5052518;28;20922;-63
2022/04/03 07:03:38;;;;;;;3.60;3.13;;;2.00;99.90;;;;;;5040397;28;20565;-63
2022/04/03 07:06:07;;;;;;;4.73;3.50;;;2.00;99.90;;;;;;5051834;28;21041;-63
2022/04/03 07:08:35;;;;;;;4.80;3.30;;;2.00;99.90;;;;;;5048957;28;20467;-63
2022/04/03 07:11:05;;;;;;;6.13;3.50;;;2.00;99.90;;;;;;5051765;28;20470;-63
2022/04/03 07:13:33;;;;;;;3.90;3.17;;;2.00;99.90;;;;;;5052017;28;20885;-63
2022/04/03 07:16:01;;;;;;;2.97;2.57;;;2.00;99.90;;;;;;5052490;28;21010;-62
2022/04/03 07:18:31;;;;;;;4.57;3.20;;;2.20;99.90;;;;;;5051708;28;20526;-62
2022/04/03 07:20:59;;;;;;;4.67;3.10;;;2.30;99.90;;;;;;5052160;28;20492;-62
2022/04/03 07:23:27;;;;;;;4.57;2.70;;;2.40;99.90;;;;;;5051534;28;20490;-62
2022/04/03 07:25:55;;;;;;;4.67;2.80;;;2.50;99.90;;;;;;5051840;28;20586;-63
2022/04/03 07:28:25;;;;;;;3.47;2.97;;;2.60;99.90;;;;;;5061446;28;20452;-63
2022/04/03 07:30:53;;;;;;;3.87;2.73;;;2.60;99.90;;;;;;5059320;28;20478;-63
2022/04/03 07:33:21;;;;;;;4.20;2.80;;;2.60;99.90;;;;;;5052057;28;20480;-63
2022/04/03 07:35:49;;;;;;;3.87;2.70;;;2.70;99.90;;;;;;5051152;28;20829;-63
2022/04/03 07:38:18;;;;;;;4.77;2.80;;;2.80;99.90;;;;;;5051990;28;20887;-63
2022/04/03 07:40:47;;;;;;;4.53;2.63;;;2.90;99.90;;;;;;5051402;28;20476;-62
2022/04/03 07:43:23;;;;;;;3.47;2.33;;;3.10;99.90;;;;;;5051035;28;20471;-63
2022/04/03 07:45:52;;;;;;;6.13;2.70;;;3.40;99.90;;;;;;5051526;28;20484;-63
2022/04/03 07:48:21;;;;;;;3.60;2.60;;;3.70;99.90;;;;;;5051658;28;20505;-63
2022/04/03 07:50:51;;;;;;;3.03;2.50;;;3.80;99.90;;;;;;5051421;28;20468;-63
2022/04/03 07:53:20;;;;;;;4.67;2.83;;;3.80;99.90;;;;;;5051427;28;20480;-64
2022/04/03 07:55:48;;;;;;;3.87;2.47;;;3.80;99.90;;;;;;5051086;28;20888;-63
2022/04/03 07:58:16;;;;;;;4.37;2.73;;;4.10;99.90;;;;;;5051567;28;20622;-63
2022/04/03 08:00:46;;;;;;;3.63;2.10;;;4.30;99.90;;;;;;5051150;28;20907;-62
2022/04/03 08:03:15;;;;;;;3.73;2.50;;;4.50;99.90;;;;;;5050754;28;20487;-63
2022/04/03 08:05:44;;;;;;;3.77;2.50;;;4.70;99.90;;;;;;5050682;28;20848;-63
2022/04/03 08:08:12;;;;;;;3.50;2.50;;;5.00;99.90;;;;;;5051202;28;20477;-63
2022/04/03 08:10:40;;;;;;;4.83;2.60;;;5.30;99.90;;;;;;5048209;28;21004;-63
2022/04/03 08:13:08;;;;;;;2.97;2.30;;;5.60;99.90;;;;;;5047338;28;20527;-63
2022/04/03 08:15:36;;;;;;;4.60;2.40;;;5.80;99.90;;;;;;5043040;28;20473;-62
2022/04/03 08:18:05;;;;;;;4.27;2.50;;;6.00;99.90;;;;;;5043662;28;20529;-62
2022/04/03 08:20:34;;;;;;;3.70;2.23;;;6.20;99.90;;;;;;5042626;28;20486;-63
2022/04/03 08:23:05;;;;;;;3.17;2.00;;;6.40;99.90;;;;;;5042295;28;20564;-62
2022/04/03 08:25:34;;;;;;;4.97;2.17;;;6.70;99.90;;;;;;5041895;28;20478;-61
2022/04/03 08:28:02;;;;;;;3.30;2.00;;;7.00;99.90;;;;;;5043617;28;20469;-59
2022/04/03 08:30:31;;;;;;;3.07;1.70;;;7.40;99.90;;;;;;5043627;28;20247;-62
2022/04/03 08:33:01;;;;;;;3.00;1.77;;;7.70;99.90;;;;;;5044132;28;20240;-62
2022/04/03 08:35:31;;;;;;;3.63;1.77;;;8.10;99.90;;;;;;5042066;28;20239;-62
2022/04/03 08:38:01;;;;;;;5.10;2.00;;;8.40;99.90;;;;;;5044415;28;20247;-62
2022/04/03 08:40:29;;;;;;;2.10;1.60;;;8.70;99.90;;;;;;5044117;28;20232;-62
2022/04/03 08:42:57;;;;;;;3.50;1.87;;;8.50;99.90;;;;;;5042615;28;20236;-62
2022/04/03 08:45:26;;;;;;;3.47;1.57;;;8.70;99.90;;;;;;5041926;28;20227;-61
2022/04/03 08:47:56;;;;;;;2.53;1.50;;;8.70;99.90;;;;;;5042629;28;20244;-62
2022/04/03 08:50:26;;;;;;;4.97;1.60;;;8.80;99.90;;;;;;5043628;28;20245;-60
2022/04/03 08:52:57;;;;;;;3.10;1.57;;;9.10;99.90;;;;;;5043188;28;20244;-62
2022/04/03 08:55:27;;;;;;;3.33;1.50;;;9.60;99.90;;;;;;5042218;28;20243;-61
2022/04/03 08:57:56;;;;;;;5.80;1.57;;;10.00;99.90;;;;;;5043322;28;20240;-61
2022/04/03 09:00:24;;;;;;;3.10;1.50;;;10.40;99.90;;;;;;5043286;28;20271;-61
2022/04/03 09:02:52;;;;;;;5.10;1.70;;;10.00;99.90;;;;;;5042230;28;20232;-62
2022/04/03 09:05:21;;;;;;;2.07;1.13;;;9.30;99.90;;;;;;5042019;28;20252;-60
2022/04/03 09:08:00;;;;;;;2.23;0.80;;;7.80;99.90;;;;;;5043002;28;20236;-61
2022/04/03 09:10:31;;;;;;;1.87;0.80;;;6.60;99.90;;;;;;5043133;28;20235;-62
2022/04/03 09:12:59;;;;;;;2.13;0.60;;;5.70;99.90;;;;;;5043121;28;20228;-62
2022/04/03 09:15:29;;;;;;;0.80;0.50;;;5.10;99.90;;;;;;5040824;28;20263;-61
2022/04/03 09:17:59;;;;;;;1.83;0.60;;;4.90;99.90;;;;;;5043073;28;20247;-61
2022/04/03 09:20:30;;;;;;;0.77;0.50;;;4.90;99.90;;;;;;5043068;28;20604;-62
2022/04/03 09:23:00;;;;;;;2.10;0.60;;;4.90;99.90;;;;;;5042820;28;20232;-62
2022/04/03 09:25:36;;;;;;;1.73;0.50;;;4.90;99.90;;;;;;5041485;28;20242;-61
2022/04/03 09:28:06;;;;;;;0.93;0.70;;;5.00;99.90;;;;;;5043435;28;21008;-62
2022/04/03 09:30:36;;;;;;;2.00;0.70;;;5.10;99.90;;;;;;5043284;28;20577;-62
2022/04/03 09:33:07;;;;;;;0.93;0.60;;;5.20;99.90;;;;;;5043493;28;20251;-62
2022/04/03 09:35:55;;;;;;;1.17;0.40;;;5.30;99.90;;;;;;5041396;28;20480;-62
2022/04/03 09:38:23;;;;;;;2.67;0.80;;;5.30;99.90;;;;;;5043274;28;20246;-61
2022/04/03 09:40:54;;;;;;;2.47;0.60;;;5.30;99.90;;;;;;5043508;28;21730;-63
2022/04/03 09:43:24;;;;;;;2.63;0.73;;;5.20;99.90;;;;;;5041877;28;20706;-62
2022/04/03 09:45:53;;;;;;;1.43;0.70;;;5.30;99.90;;;;;;5042630;28;22449;-62
2022/04/03 09:48:23;;;;;;;1.20;0.90;;;5.50;99.90;;;;;;5043487;28;20242;-62
2022/04/03 09:51:00;;;;;;;2.00;0.70;;;5.70;99.90;;;;;;5047810;28;20837;-62
2022/04/03 09:53:28;;;;;;;1.87;0.80;;;5.70;99.90;;;;;;5049995;28;20647;-62
2022/04/03 09:55:58;;;;;;;1.33;0.80;;;5.70;99.90;;;;;;5049761;28;20322;-63
2022/04/03 09:58:26;;;;;;;2.03;0.80;;;5.70;99.90;;;;;;5049884;28;20707;-63
2022/04/03 10:00:54;;;;;;;3.73;0.87;;;5.70;99.90;;;;;;5053412;28;20561;-63
2022/04/03 10:03:26;;;;;;;2.93;1.33;;;5.90;99.90;;;;;;5052944;28;20516;-62
2022/04/03 10:05:54;;;;;;;2.63;1.00;;;6.50;99.90;;;;;;5053336;28;20518;-62
2022/04/03 10:08:24;;;;;;;3.33;1.20;;;7.00;99.90;;;;;;5054703;28;20246;-62
2022/04/03 10:10:55;;;;;;;2.13;1.03;;;7.60;99.90;;;;;;5049390;28;20691;-62
2022/04/03 10:13:24;;;;;;;2.07;0.70;;;7.90;99.90;;;;;;5053626;28;20232;-62
2022/04/03 10:15:54;;;;;;;2.53;0.90;;;7.90;99.90;;;;;;5053120;28;20257;-62
2022/04/03 10:18:22;;;;;;;1.93;0.90;;;8.50;99.90;;;;;;5050979;28;20315;-62
2022/04/03 10:20:51;;;;;;;3.70;1.03;;;9.30;99.90;;;;;;5052883;28;20235;-62
2022/04/03 10:23:22;;;;;;;3.90;0.90;;;9.80;99.90;;;;;;5052569;28;20252;-62
2022/04/03 10:25:54;;;;;;;2.03;0.80;;;10.20;99.90;;;;;;5053267;28;20325;-62
2022/04/03 10:28:25;;;;;;;2.37;1.00;;;10.70;99.90;;;;;;5053326;28;20290;-62
2022/04/03 10:30:59;;;;;;;1.20;0.83;;;11.30;99.90;;;;;;5053164;28;20323;-62
2022/04/03 10:33:36;;;;;;;1.50;0.70;;;11.80;99.90;;;;;;5053052;28;20753;-62
2022/04/03 10:36:07;;;;;;;3.70;1.10;;;12.00;99.90;;;;;;5052905;28;20247;-62
2022/04/03 10:38:38;;;;;;;2.13;0.90;;;11.70;99.90;;;;;;5053066;28;20299;-62
2022/04/03 10:41:07;;;;;;;2.73;1.10;;;11.30;99.90;;;;;;5052813;28;20723;-62
2022/04/03 10:43:40;;;;;;;3.80;0.80;;;11.20;99.90;;;;;;5052268;28;20231;-62
2022/04/03 10:46:08;;;;;;;5.27;1.10;;;11.30;99.90;;;;;;5052335;28;20578;-62
2022/04/03 10:48:37;;;;;;;2.53;0.90;;;11.30;99.90;;;;;;5052893;28;20239;-62
2022/04/03 10:51:08;;;;;;;3.17;1.20;;;11.50;99.90;;;;;;5052737;28;20576;-62
2022/04/03 10:53:39;;;;;;;3.83;1.00;;;11.40;99.90;;;;;;5052589;28;20293;-62
2022/04/03 10:56:10;;;;;;;3.63;1.00;;;10.30;99.90;;;;;;5052457;28;20250;-62
2022/04/03 10:58:45;;;;;;;2.03;1.17;;;9.40;99.90;;;;;;5032780;28;20248;-62
2022/04/03 11:01:24;;;;;;;5.40;1.20;;;8.60;99.90;;;;;;5051322;28;20304;-62
2022/04/03 11:03:58;;;;;;;1.70;0.63;;;7.70;99.90;;;;;;5050729;28;20650;-62
2022/04/03 11:06:35;;;;;;;2.77;0.60;;;7.20;99.90;;;;;;5052228;28;20239;-62
2022/04/03 11:09:12;;;;;;;2.50;0.50;;;7.30;99.90;;;;;;5052092;28;20629;-62
2022/04/03 11:11:49;;;;;;;1.17;0.50;;;7.40;99.90;;;;;;5043381;28;20262;-62
2022/04/03 11:14:51;;;;;;;1.83;0.50;;;7.90;99.90;;;;;;5052033;28;20239;-62
2022/04/03 11:17:36;;;;;;;2.13;0.40;;;8.70;99.90;;;;;;5048785;28;20323;-62
2022/04/03 11:20:05;;;;;;;2.43;0.80;;;9.30;99.90;;;;;;5051505;28;20255;-62
2022/04/03 11:22:33;;;;;;;1.50;0.70;;;9.60;99.90;;;;;;5051968;28;20243;-62
2022/04/03 11:25:02;;;;;;;2.20;0.60;;;10.00;99.90;;;;;;5051543;28;20608;-62
2022/04/03 11:27:30;;;;;;;3.97;0.67;;;10.30;99.90;;;;;;5052005;28;20255;-62
2022/04/03 11:29:59;;;;;;;2.40;0.60;;;10.40;99.90;;;;;;5052122;28;20231;-62
2022/04/03 11:32:30;;;;;;;3.23;0.80;;;10.10;99.90;;;;;;5052107;28;20240;-62
2022/04/03 11:35:00;;;;;;;4.77;0.80;;;9.80;99.90;;;;;;5052200;28;20263;-62
2022/04/03 11:37:28;;;;;;;4.00;0.83;;;9.90;99.90;;;;;;5051835;28;20716;-62
2022/04/03 11:39:58;;;;;;;3.37;0.70;;;9.50;99.90;;;;;;5051799;28;20275;-62
2022/04/03 11:42:26;;;;;;;4.13;0.70;;;9.20;99.90;;;;;;5051626;28;20237;-60
2022/04/03 11:44:55;;;;;;;3.00;0.70;;;8.70;99.90;;;;;;5050694;28;20293;-62
2022/04/03 11:47:25;;;;;;;1.30;0.40;;;8.10;99.90;;;;;;5051673;28;20246;-62
2022/04/03 11:50:11;;;;;;;2.17;0.50;;;7.90;99.90;;;;;;5051483;28;20250;-62
2022/04/03 11:52:39;;;;;;;3.93;1.03;;;8.30;99.90;;;;;;5043344;28;20566;-62
2022/04/03 11:55:12;;;;;;;3.60;0.63;;;8.70;99.90;;;;;;5050786;28;20285;-62
2022/04/03 11:57:40;;;;;;;2.20;0.60;;;8.80;99.90;;;;;;5051640;28;20262;-62
2022/04/03 12:00:10;;;;;;;1.50;0.60;;;9.00;99.90;;;;;;5051334;28;20242;-62
2022/04/03 12:02:43;;;;;;;3.13;0.63;;;9.20;99.90;;;;;;5043509;28;20263;-62
2022/04/03 12:05:21;;;;;;;1.67;0.60;;;9.40;99.90;;;;;;5050847;28;20239;-62
2022/04/03 12:07:49;;;;;;;2.07;0.70;;;9.40;99.90;;;;;;5044467;28;20665;-62
2022/04/03 12:10:24;;;;;;;3.27;0.77;;;9.50;99.90;;;;;;5051061;28;20765;-62
2022/04/03 12:12:54;;;;;;;3.60;0.60;;;9.10;99.90;;;;;;5051142;28;20315;-62
2022/04/03 12:15:23;;;;;;;1.33;0.60;;;8.50;99.90;;;;;;5051074;28;20261;-62
2022/04/03 12:18:11;;;;;;;1.87;0.73;;;8.40;99.90;;;;;;5050961;28;20239;-61
2022/04/03 12:20:41;;;;;;;1.97;0.70;;;8.50;99.90;;;;;;5050206;28;20234;-62
2022/04/03 12:23:09;;;;;;;3.53;0.80;;;8.70;99.90;;;;;;5050424;28;20232;-62
2022/04/03 12:25:38;;;;;;;0.80;0.30;;;8.90;99.90;;;;;;5044874;28;20646;-62
2022/04/03 12:28:06;;;;;;;1.57;0.40;;;8.90;99.90;;;;;;5050510;28;20244;-62
2022/04/03 12:30:34;;;;;;;2.53;0.63;;;8.70;99.90;;;;;;5050436;28;20237;-62
2022/04/03 12:33:02;;;;;;;1.90;0.57;;;8.60;99.90;;;;;;5051020;28;20250;-62
2022/04/03 12:35:31;;;;;;;1.27;0.60;;;8.40;99.90;;;;;;5051033;28;20599;-62
2022/04/03 12:38:20;;;;;;;1.30;0.70;;;8.30;99.90;;;;;;5050842;28;20323;-62
2022/04/03 12:40:53;;;;;;;2.23;0.90;;;8.10;99.90;;;;;;5050523;28;20232;-62
2022/04/03 12:43:21;;;;;;;2.37;0.80;;;8.00;99.90;;;;;;5047923;28;20727;-63
2022/04/03 12:45:56;;;;;;;2.87;0.97;;;7.90;99.90;;;;;;5050016;28;20236;-62
2022/04/03 12:48:25;;;;;;;3.33;0.70;;;7.90;99.90;;;;;;5050375;28;20313;-62
2022/04/03 12:50:53;;;;;;;3.70;0.67;;;8.00;99.90;;;;;;5049674;28;20242;-63
2022/04/03 12:53:26;;;;;;;2.37;0.70;;;7.90;99.90;;;;;;5049911;28;20323;-62
2022/04/03 12:55:56;;;;;;;2.00;0.77;;;7.70;99.90;;;;;;5049327;28;20771;-62
2022/04/03 12:58:25;;;;;;;0.97;0.50;;;7.50;99.90;;;;;;5050699;28;20639;-62
2022/04/03 13:01:07;;;;;;;1.97;0.87;;;7.50;99.90;;;;;;5050486;28;20236;-62
2022/04/03 13:03:38;;;;;;;3.03;0.80;;;7.50;99.90;;;;;;5049576;28;20254;-62
2022/04/03 13:06:09;;;;;;;4.93;1.70;;;7.70;99.90;;;;;;5050385;28;20240;-62
2022/04/03 13:08:46;;;;;;;2.77;0.80;;;7.90;99.90;;;;;;5050294;28;20723;-63